DAOO/ORN METAR and TAF weather

Enter ICAO airport designator
Station Type Date Time Source
DAOO METAR 2022/06/26 07:30 UTC NOAA

DAOO 260730Z 22009KT CAVOK 24/13 Q1011


Station Type Date Time Source
DAOO Decoded METAR 2022/06/26 07:30 UTC NOAA

Oran / Es Senia, Algeria (DAOO) 35-38N 000-36W 90M
Jun 26, 2022 - 03:30 AM EDT / 2022.06.26 0730 UTC
Wind: from the SW (220 degrees) at 10 MPH (9 KT):0
Visibility: greater than 7 mile(s):0
Temperature: 75 F (24 C)
Dew Point: 55 F (13 C)
Relative Humidity: 50%
Pressure (altimeter): 29.85 in. Hg (1011 hPa)
ob: DAOO 260730Z 22009KT CAVOK 24/13 Q1011
cycle: 7

Station Type Date Time Source
DAOO TAF 2022/06/26 06:47 UTC NOAA

TAF DAOO 260500Z 2606/2706 VRB02KT CAVOK
BECMG 2607/2609 22014KT
BECMG 2616/2618 28010KT
BECMG 2619/2622 19008KT

Example: see airport list